Time;durP1;ratioP1;P1;durP2;ratioP2;P2;SDS_P1;SDS_P2;PMS_P1;PMS_P2;Temp;Humidity;BMP_temperature;BMP_pressure;BME280_temperature;BME280_humidity;BME280_pressure;Samples;Min_cycle;Max_cycle;Signal;HPM_P1;HPM_P2
2021/08/26 00:06:45;;;;;;;12.05;7.75;;;19.20;83.00;;;;;;5037319;28;21008;-60
2021/08/26 00:09:11;;;;;;;8.13;7.20;;;19.10;83.00;;;;;;5050549;28;20347;-60
2021/08/26 00:11:37;;;;;;;8.30;6.70;;;19.20;83.10;;;;;;5053363;28;20020;-60
2021/08/26 00:14:02;;;;;;;9.73;7.70;;;19.10;83.10;;;;;;5063514;28;20295;-60
2021/08/26 00:16:28;;;;;;;10.52;7.40;;;19.10;83.20;;;;;;5046969;28;20025;-60
2021/08/26 00:18:54;;;;;;;9.75;8.35;;;19.00;83.20;;;;;;5070779;28;20251;-60
2021/08/26 00:21:20;;;;;;;12.60;8.52;;;19.10;83.40;;;;;;5019954;28;20025;-60
2021/08/26 00:23:45;;;;;;;8.43;7.60;;;19.00;83.30;;;;;;5063507;28;20055;-60
2021/08/26 00:26:11;;;;;;;9.98;8.27;;;19.00;83.30;;;;;;5046378;28;20048;-60
2021/08/26 00:28:36;;;;;;;9.48;8.48;;;19.00;83.40;;;;;;5044730;28;20024;-60
2021/08/26 00:31:03;;;;;;;11.13;8.50;;;19.00;83.40;;;;;;5037566;28;20111;-60
2021/08/26 00:33:28;;;;;;;10.15;7.78;;;19.00;83.40;;;;;;5031072;28;20025;-60
2021/08/26 00:35:54;;;;;;;9.77;7.78;;;19.00;83.50;;;;;;5067450;28;20048;-60
2021/08/26 00:38:21;;;;;;;8.85;7.13;;;18.90;83.40;;;;;;5061148;28;20548;-61
2021/08/26 00:40:47;;;;;;;9.75;7.35;;;18.90;83.50;;;;;;5027125;28;20468;-60
2021/08/26 00:43:13;;;;;;;9.23;6.75;;;18.90;83.50;;;;;;5064776;28;20062;-61
2021/08/26 00:45:40;;;;;;;11.85;7.13;;;18.90;83.50;;;;;;5061825;28;20492;-60
2021/08/26 00:48:06;;;;;;;12.30;6.85;;;18.80;83.60;;;;;;5027621;28;20045;-60
2021/08/26 00:50:32;;;;;;;15.90;7.03;;;18.90;83.70;;;;;;5032171;28;20032;-60
2021/08/26 00:52:57;;;;;;;11.05;6.35;;;18.80;83.70;;;;;;5046858;28;20268;-60
2021/08/26 00:55:23;;;;;;;10.55;6.25;;;18.80;83.70;;;;;;5062493;28;20121;-60
2021/08/26 00:57:48;;;;;;;9.25;6.53;;;18.80;83.70;;;;;;5033174;28;20067;-60
2021/08/26 01:00:14;;;;;;;11.13;6.15;;;18.80;83.80;;;;;;5069067;28;20063;-59
2021/08/26 01:02:52;;;;;;;17.27;6.20;;;18.80;83.90;;;;;;5072518;28;20073;-60
2021/08/26 01:05:22;;;;;;;9.35;6.00;;;18.70;83.80;;;;;;5060172;28;20086;-60
2021/08/26 01:07:55;;;;;;;12.00;6.10;;;18.70;83.80;;;;;;5044507;28;20367;-60
2021/08/26 01:10:21;;;;;;;8.88;5.85;;;18.70;83.80;;;;;;5062058;28;20055;-61
2021/08/26 01:12:47;;;;;;;8.40;5.70;;;18.70;83.80;;;;;;5063076;28;20081;-60
2021/08/26 01:15:12;;;;;;;9.75;6.18;;;18.70;83.90;;;;;;5062815;28;20372;-60
2021/08/26 01:17:38;;;;;;;6.57;5.32;;;18.70;83.90;;;;;;5047228;28;20033;-60
2021/08/26 01:20:05;;;;;;;7.47;5.50;;;18.70;84.00;;;;;;5045664;28;20281;-61
2021/08/26 01:22:31;;;;;;;6.90;5.20;;;18.60;83.90;;;;;;5050175;28;20115;-61
2021/08/26 01:25:05;;;;;;;7.20;5.07;;;18.60;83.90;;;;;;5030463;28;20123;-61
2021/08/26 01:27:37;;;;;;;7.95;6.28;;;18.60;83.90;;;;;;5049129;28;20046;-60
2021/08/26 01:30:04;;;;;;;10.98;7.82;;;18.60;83.90;;;;;;5061148;28;20032;-60
2021/08/26 01:32:30;;;;;;;7.95;7.10;;;18.60;84.00;;;;;;5046129;28;20422;-61
2021/08/26 01:34:55;;;;;;;9.38;6.60;;;18.60;84.00;;;;;;5028807;28;20021;-60
2021/08/26 01:37:22;;;;;;;8.07;6.30;;;18.60;84.00;;;;;;5061833;28;20101;-61
2021/08/26 01:39:49;;;;;;;7.57;6.20;;;18.50;84.00;;;;;;5043945;28;20116;-61
2021/08/26 01:42:14;;;;;;;9.32;6.00;;;18.50;84.10;;;;;;5048022;28;21665;-60
2021/08/26 01:44:40;;;;;;;7.47;5.40;;;18.50;84.10;;;;;;5067755;28;20052;-60
2021/08/26 01:47:16;;;;;;;8.27;5.95;;;18.50;84.20;;;;;;5052396;28;20498;-61
2021/08/26 01:49:51;;;;;;;9.50;6.65;;;18.50;84.20;;;;;;5029970;28;20032;-60
2021/08/26 01:52:17;;;;;;;9.27;5.75;;;18.50;84.40;;;;;;5054096;28;20041;-61
2021/08/26 01:55:09;;;;;;;7.05;5.10;;;18.40;84.40;;;;;;5051467;28;20054;-61
2021/08/26 01:57:35;;;;;;;10.00;5.30;;;18.40;84.50;;;;;;5045012;28;20036;-59
2021/08/26 02:00:04;;;;;;;5.72;5.18;;;18.40;84.50;;;;;;5046645;28;20029;-61
2021/08/26 02:02:30;;;;;;;5.95;5.20;;;18.40;84.50;;;;;;5025940;28;20043;-61
2021/08/26 02:04:55;;;;;;;7.60;4.68;;;18.40;84.60;;;;;;5029647;28;20036;-61
2021/08/26 02:07:21;;;;;;;6.80;4.93;;;18.40;84.50;;;;;;5071553;28;20318;-60
2021/08/26 02:09:46;;;;;;;5.82;5.05;;;18.40;84.60;;;;;;5048142;28;20448;-61
2021/08/26 02:12:12;;;;;;;7.63;4.80;;;18.30;84.60;;;;;;5053075;28;20438;-60
2021/08/26 02:14:37;;;;;;;5.97;5.03;;;18.30;84.60;;;;;;5061209;28;20046;-61
2021/08/26 02:17:03;;;;;;;6.88;4.32;;;18.30;84.60;;;;;;5046699;28;20032;-61
2021/08/26 02:19:28;;;;;;;7.70;4.68;;;18.30;84.70;;;;;;5045865;28;20382;-61
2021/08/26 02:21:54;;;;;;;5.50;4.40;;;18.30;84.80;;;;;;5066728;28;20091;-60
2021/08/26 02:24:19;;;;;;;5.93;4.72;;;18.30;84.80;;;;;;5066760;28;20464;-60
2021/08/26 02:26:45;;;;;;;10.80;4.60;;;18.30;84.80;;;;;;5063826;28;20040;-60
2021/08/26 02:29:10;;;;;;;4.70;4.25;;;18.20;84.80;;;;;;5029242;28;20016;-61
2021/08/26 02:31:36;;;;;;;4.70;4.03;;;18.20;84.90;;;;;;5061348;28;20036;-60
2021/08/26 02:34:01;;;;;;;4.75;4.20;;;18.20;84.90;;;;;;5045771;28;20135;-60
2021/08/26 02:36:27;;;;;;;5.35;4.40;;;18.20;85.00;;;;;;5047659;28;20490;-61
2021/08/26 02:38:52;;;;;;;5.55;4.03;;;18.20;85.10;;;;;;5064643;28;20658;-60
2021/08/26 02:41:18;;;;;;;6.90;4.28;;;18.10;85.10;;;;;;5048928;28;20035;-60
2021/08/26 02:43:43;;;;;;;5.15;3.95;;;18.10;85.10;;;;;;5013567;28;20032;-60
2021/08/26 02:46:09;;;;;;;6.38;4.68;;;18.10;85.10;;;;;;5061659;28;22115;-60
2021/08/26 02:48:35;;;;;;;5.35;4.05;;;18.10;85.00;;;;;;5064032;28;20193;-60
2021/08/26 02:51:00;;;;;;;6.70;4.32;;;18.10;85.00;;;;;;5053310;28;20417;-61
2021/08/26 02:53:26;;;;;;;8.45;4.30;;;18.10;85.10;;;;;;5035939;28;20049;-60
2021/08/26 02:55:51;;;;;;;7.93;4.22;;;18.10;85.10;;;;;;5050842;28;20044;-59
2021/08/26 02:58:17;;;;;;;8.75;4.10;;;18.00;85.10;;;;;;5042706;28;20048;-61
2021/08/26 03:00:42;;;;;;;5.30;4.00;;;18.10;85.20;;;;;;5067172;28;20044;-61
2021/08/26 03:03:08;;;;;;;6.20;4.00;;;18.00;85.10;;;;;;5019871;28;20048;-60
2021/08/26 03:05:33;;;;;;;5.47;3.78;;;18.00;85.20;;;;;;5052673;28;20032;-60
2021/08/26 03:07:59;;;;;;;4.40;4.00;;;18.00;85.20;;;;;;5053013;28;20020;-60
2021/08/26 03:10:25;;;;;;;4.97;4.18;;;18.00;85.30;;;;;;5059414;28;20047;-60
2021/08/26 03:12:50;;;;;;;6.05;3.70;;;18.00;85.30;;;;;;5040157;28;20031;-60
2021/08/26 03:15:16;;;;;;;4.18;3.67;;;17.90;85.30;;;;;;5040602;28;20094;-61
2021/08/26 03:17:41;;;;;;;8.38;3.80;;;17.90;85.40;;;;;;5047814;28;20052;-60
2021/08/26 03:20:07;;;;;;;6.88;3.80;;;18.00;85.60;;;;;;5067383;28;20024;-61
2021/08/26 03:22:33;;;;;;;4.93;3.88;;;17.90;85.60;;;;;;5042624;28;20085;-60
2021/08/26 03:24:58;;;;;;;5.35;3.75;;;17.80;85.50;;;;;;5042429;28;20464;-60
2021/08/26 03:27:24;;;;;;;17.48;5.72;;;17.80;85.50;;;;;;5043470;28;20175;-60
2021/08/26 03:29:49;;;;;;;24.80;6.22;;;17.80;85.60;;;;;;5047784;28;20158;-61
2021/08/26 03:32:15;;;;;;;34.58;7.93;;;17.70;85.60;;;;;;5065063;28;20171;-60
2021/08/26 03:34:40;;;;;;;30.40;6.90;;;17.80;85.60;;;;;;5042553;28;20033;-61
2021/08/26 03:37:06;;;;;;;40.10;7.75;;;17.80;85.60;;;;;;5032629;28;20128;-60
2021/08/26 03:39:32;;;;;;;42.92;8.55;;;17.80;85.60;;;;;;5060257;28;20032;-60
2021/08/26 03:41:57;;;;;;;40.83;7.57;;;17.80;85.60;;;;;;5050443;28;20048;-61
2021/08/26 03:44:23;;;;;;;44.38;8.18;;;17.70;85.50;;;;;;5058675;28;20033;-60
2021/08/26 03:46:48;;;;;;;35.88;8.40;;;17.70;85.60;;;;;;5063784;28;20361;-60
2021/08/26 03:49:14;;;;;;;33.22;7.60;;;17.70;85.50;;;;;;5056631;28;20127;-60
2021/08/26 03:51:39;;;;;;;27.25;7.47;;;17.70;85.60;;;;;;5039162;28;20028;-60
2021/08/26 03:54:05;;;;;;;35.70;7.50;;;17.70;85.60;;;;;;5067087;28;20033;-60
2021/08/26 03:56:30;;;;;;;35.22;7.60;;;17.70;85.60;;;;;;5064117;28;20354;-60
2021/08/26 03:58:56;;;;;;;30.15;6.90;;;17.70;85.60;;;;;;5059716;28;20201;-60
2021/08/26 04:01:21;;;;;;;26.75;7.28;;;17.70;85.70;;;;;;5068236;28;20222;-61
2021/08/26 04:03:47;;;;;;;31.25;7.35;;;17.60;85.70;;;;;;5043852;28;20309;-60
2021/08/26 04:06:12;;;;;;;29.95;7.80;;;17.60;85.70;;;;;;5063787;28;20119;-60
2021/08/26 04:08:38;;;;;;;29.45;6.93;;;17.60;85.80;;;;;;5044298;28;20048;-60
2021/08/26 04:11:04;;;;;;;32.97;7.18;;;17.60;85.90;;;;;;5023619;28;20049;-60
2021/08/26 04:13:29;;;;;;;28.02;7.03;;;17.60;86.00;;;;;;5022557;28;21432;-61
2021/08/26 04:15:55;;;;;;;26.50;6.63;;;17.60;86.00;;;;;;5061880;28;20108;-61
2021/08/26 04:18:20;;;;;;;35.50;6.82;;;17.60;86.00;;;;;;5062093;28;20113;-60
2021/08/26 04:20:46;;;;;;;36.30;6.53;;;17.60;86.20;;;;;;5061568;28;20043;-60
2021/08/26 04:23:11;;;;;;;27.90;6.88;;;17.50;86.20;;;;;;5043768;28;20082;-61
2021/08/26 04:25:37;;;;;;;26.45;6.35;;;17.50;86.30;;;;;;5012549;28;20074;-60
2021/08/26 04:28:03;;;;;;;29.27;5.88;;;17.50;86.30;;;;;;5043754;28;20062;-60
2021/08/26 04:30:28;;;;;;;21.08;5.97;;;17.50;86.40;;;;;;5066647;28;20024;-61
2021/08/26 04:32:54;;;;;;;28.48;6.30;;;17.50;86.40;;;;;;5046980;28;20126;-61
2021/08/26 04:35:19;;;;;;;27.35;6.55;;;17.50;86.40;;;;;;5065461;28;20051;-60
2021/08/26 04:37:45;;;;;;;27.77;6.68;;;17.50;86.50;;;;;;5046438;28;20388;-60
2021/08/26 04:40:11;;;;;;;30.38;6.68;;;17.50;86.50;;;;;;5048785;28;20160;-61
2021/08/26 04:42:36;;;;;;;21.73;5.95;;;17.50;86.60;;;;;;5069453;28;20152;-61
2021/08/26 04:45:02;;;;;;;25.30;5.53;;;17.50;86.60;;;;;;5066973;28;20069;-60
2021/08/26 04:47:27;;;;;;;44.35;7.50;;;17.50;86.60;;;;;;5046752;28;20028;-60
2021/08/26 04:49:53;;;;;;;23.95;5.88;;;17.70;87.00;;;;;;5069698;28;20395;-60
2021/08/26 04:52:18;;;;;;;19.38;5.90;;;17.50;86.60;;;;;;5061861;28;20468;-61
2021/08/26 04:54:44;;;;;;;14.82;5.80;;;17.50;86.70;;;;;;5050308;28;20033;-61
2021/08/26 04:57:09;;;;;;;31.58;6.15;;;17.50;86.80;;;;;;5049781;28;20073;-60
2021/08/26 04:59:35;;;;;;;22.65;5.95;;;17.50;86.90;;;;;;5062012;28;20081;-60
2021/08/26 05:02:00;;;;;;;22.42;5.95;;;17.50;87.00;;;;;;5072676;28;20482;-61
2021/08/26 05:04:26;;;;;;;24.95;6.13;;;17.50;86.90;;;;;;5065547;28;20041;-61
2021/08/26 05:06:51;;;;;;;22.77;5.82;;;17.50;86.90;;;;;;5066553;28;20577;-60
2021/08/26 05:09:17;;;;;;;19.60;6.05;;;17.50;86.90;;;;;;5072606;28;20071;-60
2021/08/26 05:11:43;;;;;;;17.45;5.90;;;17.40;87.00;;;;;;5050559;28;20573;-60
2021/08/26 05:14:09;;;;;;;23.75;5.95;;;17.40;87.00;;;;;;5047374;28;20397;-61
2021/08/26 05:16:34;;;;;;;18.98;5.78;;;17.40;87.10;;;;;;5055984;28;20379;-60
2021/08/26 05:19:00;;;;;;;14.57;4.85;;;17.40;87.20;;;;;;5047028;28;20440;-60
2021/08/26 05:21:25;;;;;;;15.15;5.55;;;17.30;87.30;;;;;;5064193;28;20643;-60
2021/08/26 05:23:51;;;;;;;15.98;5.97;;;17.40;87.40;;;;;;5048486;28;20440;-61
2021/08/26 05:26:16;;;;;;;14.75;6.13;;;17.40;87.40;;;;;;5044794;28;20036;-60
2021/08/26 05:28:42;;;;;;;15.93;5.50;;;17.40;87.20;;;;;;5040776;28;20603;-60
2021/08/26 05:31:09;;;;;;;14.63;5.70;;;17.40;87.30;;;;;;5049708;28;20138;-61
2021/08/26 05:33:34;;;;;;;17.35;5.55;;;17.30;87.20;;;;;;5042793;28;20078;-60
2021/08/26 05:36:00;;;;;;;15.50;5.47;;;17.40;87.30;;;;;;5065173;28;20047;-60
2021/08/26 05:38:25;;;;;;;13.82;5.85;;;17.40;87.40;;;;;;5063700;28;20039;-60
2021/08/26 05:40:51;;;;;;;12.50;5.50;;;17.40;87.40;;;;;;5059615;28;20040;-60
2021/08/26 05:43:16;;;;;;;14.98;5.78;;;17.40;87.40;;;;;;5071298;28;20028;-62
2021/08/26 05:45:42;;;;;;;10.20;5.80;;;17.30;87.40;;;;;;5067296;28;20495;-60
2021/08/26 05:48:07;;;;;;;15.43;5.63;;;17.40;87.40;;;;;;5066407;28;20069;-60
2021/08/26 05:50:33;;;;;;;15.57;6.00;;;17.30;87.30;;;;;;5029360;28;20548;-60
2021/08/26 05:52:58;;;;;;;9.52;5.38;;;17.40;87.30;;;;;;5065028;28;20043;-60
2021/08/26 05:55:24;;;;;;;7.57;5.50;;;17.30;87.30;;;;;;5041176;28;20127;-61
2021/08/26 05:57:49;;;;;;;9.20;5.70;;;17.30;87.30;;;;;;5068489;28;20037;-60
2021/08/26 06:00:15;;;;;;;10.30;5.07;;;17.30;87.30;;;;;;5069046;28;20491;-61
2021/08/26 06:02:41;;;;;;;20.40;6.07;;;17.30;87.30;;;;;;5045473;28;20432;-61
2021/08/26 06:05:07;;;;;;;10.70;5.40;;;17.30;87.30;;;;;;5021372;28;20080;-61
2021/08/26 06:07:32;;;;;;;10.13;5.43;;;17.30;87.30;;;;;;5050760;28;20032;-61
2021/08/26 06:09:58;;;;;;;13.10;5.20;;;17.30;87.30;;;;;;5063419;28;20451;-60
2021/08/26 06:12:23;;;;;;;9.88;5.18;;;17.30;87.30;;;;;;5065112;28;20491;-60
2021/08/26 06:14:48;;;;;;;12.75;6.55;;;17.30;87.30;;;;;;5041196;28;20141;-61
2021/08/26 06:17:14;;;;;;;10.50;5.63;;;17.30;87.40;;;;;;5025236;28;21487;-60
2021/08/26 06:19:39;;;;;;;16.35;5.90;;;17.20;87.30;;;;;;5056902;28;20024;-60
2021/08/26 06:22:05;;;;;;;10.55;5.65;;;17.30;87.30;;;;;;5047396;28;20414;-60
2021/08/26 06:24:31;;;;;;;12.93;5.80;;;17.30;87.40;;;;;;5032827;28;20532;-61
2021/08/26 06:27:01;;;;;;;14.20;5.82;;;17.30;87.50;;;;;;5039426;28;20068;-60
2021/08/26 06:29:26;;;;;;;11.65;6.00;;;17.30;87.50;;;;;;5045864;28;20024;-60
2021/08/26 06:31:52;;;;;;;11.23;5.53;;;17.30;87.50;;;;;;5050739;28;20033;-60
2021/08/26 06:34:17;;;;;;;9.75;5.53;;;17.30;87.60;;;;;;5062979;28;20086;-61
2021/08/26 06:36:43;;;;;;;10.85;5.63;;;17.30;87.50;;;;;;5063866;28;20111;-61
2021/08/26 06:39:08;;;;;;;12.75;5.75;;;17.30;87.60;;;;;;5043948;28;20115;-60
2021/08/26 06:41:34;;;;;;;10.07;5.50;;;17.20;87.50;;;;;;5043676;28;20163;-60
2021/08/26 06:43:59;;;;;;;11.95;5.68;;;17.30;87.60;;;;;;5035691;28;20143;-60
2021/08/26 06:46:25;;;;;;;15.35;5.75;;;17.30;87.70;;;;;;5040223;28;20029;-60
2021/08/26 06:48:51;;;;;;;12.70;6.13;;;17.30;87.70;;;;;;5040139;28;20032;-61
2021/08/26 06:51:17;;;;;;;10.30;6.22;;;17.30;87.80;;;;;;5058618;28;20046;-61
2021/08/26 06:53:42;;;;;;;10.82;6.90;;;17.30;87.80;;;;;;5043957;28;20459;-60
2021/08/26 06:56:08;;;;;;;61.13;14.02;;;17.30;88.10;;;;;;5028271;28;20032;-60
2021/08/26 06:58:33;;;;;;;94.93;18.30;;;17.30;88.20;;;;;;5059200;28;20491;-60
2021/08/26 07:00:59;;;;;;;47.30;10.30;;;17.40;88.30;;;;;;5032829;28;20036;-60
2021/08/26 07:03:24;;;;;;;27.30;9.63;;;17.30;88.50;;;;;;5034009;28;20499;-60
2021/08/26 07:05:50;;;;;;;31.20;10.32;;;17.30;88.70;;;;;;5041612;28;20112;-61
2021/08/26 07:08:15;;;;;;;34.05;10.27;;;17.30;89.50;;;;;;5049662;28;20345;-61
2021/08/26 07:10:41;;;;;;;30.45;10.15;;;17.30;89.90;;;;;;5059137;28;20173;-60
2021/08/26 07:13:06;;;;;;;29.35;11.43;;;17.30;89.80;;;;;;5041404;28;20043;-60
2021/08/26 07:15:32;;;;;;;29.73;10.05;;;17.30;90.20;;;;;;5061286;28;20375;-61
2021/08/26 07:17:57;;;;;;;25.58;10.00;;;17.30;90.10;;;;;;5059305;28;20055;-60
2021/08/26 07:20:23;;;;;;;31.85;10.60;;;17.30;90.10;;;;;;5062601;28;20044;-60
2021/08/26 07:22:49;;;;;;;27.58;9.52;;;17.40;90.10;;;;;;5043906;28;20054;-60
2021/08/26 07:25:14;;;;;;;22.08;10.07;;;17.40;90.10;;;;;;5044719;28;20037;-60
2021/08/26 07:27:40;;;;;;;27.42;10.20;;;17.40;90.30;;;;;;5052024;28;20016;-60
2021/08/26 07:30:06;;;;;;;24.85;10.40;;;17.40;90.20;;;;;;5064806;28;20036;-60
2021/08/26 07:32:31;;;;;;;27.30;10.65;;;17.40;90.20;;;;;;5038566;28;20424;-60
2021/08/26 07:34:57;;;;;;;25.90;10.02;;;17.40;90.40;;;;;;5056605;28;20032;-61
2021/08/26 07:37:22;;;;;;;20.00;10.10;;;17.40;90.40;;;;;;5044800;28;20027;-60
2021/08/26 07:39:48;;;;;;;28.27;9.43;;;17.50;90.50;;;;;;5057546;28;20036;-60
2021/08/26 07:42:13;;;;;;;19.67;9.77;;;17.40;90.30;;;;;;5023494;28;20043;-60
2021/08/26 07:44:39;;;;;;;24.20;10.45;;;17.50;90.50;;;;;;5025903;28;20014;-61
2021/08/26 07:47:04;;;;;;;28.30;10.25;;;17.50;90.50;;;;;;5041056;28;20036;-60
2021/08/26 07:49:30;;;;;;;28.70;9.50;;;17.50;90.50;;;;;;5045298;28;20681;-60
2021/08/26 07:51:55;;;;;;;31.92;10.30;;;17.50;90.40;;;;;;5045555;28;20553;-60
2021/08/26 07:54:21;;;;;;;22.85;10.38;;;17.50;90.50;;;;;;5059041;28;20375;-60
2021/08/26 07:56:46;;;;;;;24.55;10.48;;;17.60;90.50;;;;;;5028142;28;20021;-60
2021/08/26 07:59:12;;;;;;;31.27;9.35;;;17.60;90.70;;;;;;5027975;28;20040;-60
2021/08/26 08:01:38;;;;;;;20.65;10.13;;;17.60;90.50;;;;;;5042770;28;20116;-60
2021/08/26 08:04:03;;;;;;;36.65;10.27;;;17.60;91.00;;;;;;5026396;28;20075;-61
2021/08/26 08:06:29;;;;;;;37.45;10.40;;;17.60;91.00;;;;;;5064087;28;20032;-61
2021/08/26 08:08:54;;;;;;;34.20;10.23;;;17.70;91.10;;;;;;5042622;28;20522;-60
2021/08/26 08:11:20;;;;;;;25.63;8.75;;;17.70;91.10;;;;;;5035161;28;21608;-60
2021/08/26 08:13:45;;;;;;;21.23;8.27;;;17.70;90.90;;;;;;5062186;28;20514;-63
2021/08/26 08:16:11;;;;;;;28.48;9.45;;;17.70;90.70;;;;;;5045685;28;20048;-60
2021/08/26 08:18:37;;;;;;;38.83;10.52;;;17.70;90.90;;;;;;5041982;28;20492;-60
2021/08/26 08:21:03;;;;;;;26.42;9.10;;;17.80;90.80;;;;;;5063296;28;20052;-60
2021/08/26 08:23:29;;;;;;;16.55;9.00;;;17.80;90.90;;;;;;5048132;28;20028;-61
2021/08/26 08:25:55;;;;;;;20.48;9.20;;;17.80;90.80;;;;;;5027309;28;20048;-60
2021/08/26 08:28:20;;;;;;;25.80;9.07;;;17.80;90.70;;;;;;5043348;28;20067;-61
2021/08/26 08:30:47;;;;;;;20.88;9.57;;;17.80;90.80;;;;;;5062245;28;20075;-60
2021/08/26 08:33:13;;;;;;;20.05;8.55;;;17.90;90.80;;;;;;5066547;28;20018;-61
2021/08/26 08:35:38;;;;;;;15.00;7.80;;;17.90;90.80;;;;;;5064185;28;20430;-60
2021/08/26 08:38:04;;;;;;;21.58;7.57;;;17.90;90.70;;;;;;5011210;28;20086;-60
2021/08/26 08:40:29;;;;;;;23.27;7.80;;;17.90;90.70;;;;;;5037935;28;20072;-60
2021/08/26 08:42:55;;;;;;;19.05;8.05;;;17.90;90.70;;;;;;5037656;28;20337;-60
2021/08/26 08:45:20;;;;;;;14.95;8.00;;;18.00;90.60;;;;;;5034201;28;20125;-61
2021/08/26 08:47:47;;;;;;;10.52;7.93;;;18.00;90.60;;;;;;5070092;28;20129;-61
2021/08/26 08:50:12;;;;;;;17.30;7.70;;;18.10;90.50;;;;;;5027933;28;20039;-60
2021/08/26 08:52:39;;;;;;;15.40;7.05;;;18.10;90.50;;;;;;5031965;28;20993;-61
2021/08/26 08:55:09;;;;;;;17.70;8.25;;;18.00;90.40;;;;;;5026574;28;20463;-61
2021/08/26 08:57:36;;;;;;;19.27;7.78;;;18.10;90.40;;;;;;5063547;28;20551;-63
2021/08/26 09:00:06;;;;;;;18.42;7.68;;;18.10;90.40;;;;;;5049966;28;20258;-60
2021/08/26 09:02:31;;;;;;;36.95;9.00;;;18.10;90.40;;;;;;5043988;28;20116;-62
2021/08/26 09:04:58;;;;;;;23.48;7.63;;;18.10;90.30;;;;;;5069561;28;20099;-60
2021/08/26 09:07:25;;;;;;;19.30;8.07;;;18.20;90.30;;;;;;5046126;28;20131;-61
2021/08/26 09:09:54;;;;;;;20.20;8.27;;;18.20;90.30;;;;;;5042623;28;20507;-60
2021/08/26 09:12:20;;;;;;;35.30;8.88;;;18.20;90.30;;;;;;5051057;28;20025;-61
2021/08/26 09:14:46;;;;;;;29.77;9.38;;;18.30;90.30;;;;;;5042463;28;20036;-60
2021/08/26 09:17:18;;;;;;;26.20;8.32;;;18.30;90.20;;;;;;5031172;28;20058;-60
2021/08/26 09:19:44;;;;;;;35.72;10.85;;;18.30;90.10;;;;;;5027999;28;20029;-60
2021/08/26 09:22:10;;;;;;;35.70;9.07;;;18.40;90.10;;;;;;5042891;28;20346;-60
2021/08/26 09:24:49;;;;;;;41.00;10.13;;;18.40;90.00;;;;;;5026784;28;20914;-61
2021/08/26 09:27:38;;;;;;;49.08;10.27;;;18.40;89.80;;;;;;5047756;28;20033;-60
2021/08/26 09:30:08;;;;;;;37.83;8.07;;;18.50;89.40;;;;;;5039821;28;20024;-61
2021/08/26 09:32:35;;;;;;;39.60;9.07;;;18.50;88.40;;;;;;5058903;28;20090;-61
2021/08/26 09:35:14;;;;;;;38.42;9.20;;;18.50;87.80;;;;;;5043637;28;20036;-61
2021/08/26 09:37:45;;;;;;;43.55;9.65;;;18.60;87.80;;;;;;5059453;28;20023;-61
2021/08/26 09:40:11;;;;;;;51.65;9.80;;;18.60;87.70;;;;;;5061871;28;20062;-60
2021/08/26 09:42:37;;;;;;;37.28;10.63;;;18.70;87.60;;;;;;5045887;28;20040;-60
2021/08/26 09:45:26;;;;;;;34.03;8.52;;;18.70;87.30;;;;;;5025209;28;20280;-60
2021/08/26 09:47:58;;;;;;;26.65;6.70;;;18.70;87.00;;;;;;5056904;28;20169;-60
2021/08/26 09:50:38;;;;;;;35.10;8.13;;;18.70;86.80;;;;;;5060550;28;20045;-60
2021/08/26 09:53:04;;;;;;;47.85;9.82;;;18.80;86.90;;;;;;5065000;28;20303;-61
2021/08/26 09:55:48;;;;;;;38.08;9.68;;;18.80;86.90;;;;;;5032716;28;20020;-60
2021/08/26 09:58:14;;;;;;;40.13;9.85;;;18.80;86.60;;;;;;5066103;28;20034;-60
2021/08/26 10:00:39;;;;;;;55.65;11.02;;;18.90;86.40;;;;;;5058608;28;20036;-61
2021/08/26 10:03:09;;;;;;;60.75;9.02;;;18.90;86.30;;;;;;5016832;28;20032;-62
2021/08/26 10:05:35;;;;;;;72.03;10.80;;;19.00;86.30;;;;;;5046066;28;20036;-60
2021/08/26 10:08:01;;;;;;;49.17;9.40;;;19.00;86.30;;;;;;5047073;28;20351;-60
2021/08/26 10:10:26;;;;;;;85.40;12.43;;;19.10;86.20;;;;;;5038518;28;20036;-60
2021/08/26 10:12:52;;;;;;;59.67;10.90;;;19.20;86.20;;;;;;5030281;28;20028;-60
2021/08/26 10:15:17;;;;;;;64.93;10.50;;;19.20;85.90;;;;;;5039947;28;20043;-60
2021/08/26 10:17:43;;;;;;;89.13;11.05;;;19.30;85.70;;;;;;5042615;28;20049;-60
2021/08/26 10:20:10;;;;;;;63.00;11.18;;;19.40;85.50;;;;;;5025630;28;20052;-60
2021/08/26 10:22:36;;;;;;;57.35;10.07;;;19.40;85.40;;;;;;5052875;28;20031;-61
2021/08/26 10:25:01;;;;;;;56.13;11.68;;;19.40;84.70;;;;;;5046357;28;20489;-60
2021/08/26 10:27:27;;;;;;;59.92;9.57;;;19.50;84.20;;;;;;5043491;28;20128;-61
2021/08/26 10:29:53;;;;;;;51.30;8.02;;;19.50;83.70;;;;;;5026452;28;20093;-60
2021/08/26 10:32:25;;;;;;;73.03;10.23;;;19.60;83.50;;;;;;5045419;28;20539;-61
2021/08/26 10:35:07;;;;;;;75.38;9.95;;;19.70;83.40;;;;;;5042342;28;20016;-61
2021/08/26 10:37:48;;;;;;;97.00;12.45;;;19.80;82.70;;;;;;5039309;28;20102;-61
2021/08/26 10:40:28;;;;;;;70.55;10.73;;;19.80;82.90;;;;;;5039738;28;20101;-61
2021/08/26 10:42:54;;;;;;;46.63;8.40;;;19.90;82.80;;;;;;5040362;28;20060;-60
2021/08/26 10:45:21;;;;;;;73.05;10.57;;;19.90;82.50;;;;;;5044342;28;20035;-61
2021/08/26 10:47:47;;;;;;;61.80;9.05;;;20.00;82.20;;;;;;5061692;28;20099;-61
2021/08/26 10:50:17;;;;;;;56.92;8.68;;;20.00;81.50;;;;;;5044849;28;20021;-60
2021/08/26 10:53:08;;;;;;;41.28;7.22;;;20.00;80.90;;;;;;5021970;28;20116;-61
2021/08/26 10:55:46;;;;;;;51.47;8.15;;;20.10;80.90;;;;;;5042006;28;20334;-61
2021/08/26 10:58:21;;;;;;;33.00;7.30;;;20.10;80.90;;;;;;5067856;28;20036;-61
2021/08/26 11:00:47;;;;;;;41.60;7.93;;;20.20;80.60;;;;;;5033855;28;20025;-61
2021/08/26 11:03:36;;;;;;;33.40;7.13;;;20.30;80.40;;;;;;5040473;28;20429;-61
2021/08/26 11:06:14;;;;;;;42.00;7.65;;;20.30;80.30;;;;;;5039794;28;20373;-61
2021/08/26 11:08:41;;;;;;;34.15;8.07;;;20.40;80.00;;;;;;5042824;28;20028;-61
2021/08/26 11:11:28;;;;;;;23.90;6.30;;;20.40;80.00;;;;;;5044863;28;20028;-61
2021/08/26 11:14:02;;;;;;;39.28;9.48;;;20.40;79.60;;;;;;5057583;28;20114;-61
2021/08/26 11:16:28;;;;;;;94.50;10.68;;;20.50;79.60;;;;;;5036904;28;20032;-61
2021/08/26 11:19:07;;;;;;;72.35;10.55;;;20.60;80.20;;;;;;5055500;28;20055;-61
2021/08/26 11:24:20;;;;;;;34.67;6.50;;;20.70;79.40;;;;;;5064387;28;20033;-61
2021/08/26 11:26:51;;;;;;;54.90;9.02;;;20.70;78.10;;;;;;5066280;28;20430;-61
2021/08/26 11:29:17;;;;;;;48.75;7.90;;;20.80;77.80;;;;;;5022829;28;20463;-61
2021/08/26 11:31:43;;;;;;;77.80;11.25;;;20.90;77.00;;;;;;5057247;28;20029;-61
2021/08/26 11:34:08;;;;;;;32.15;6.35;;;21.00;76.90;;;;;;5042340;28;20372;-61
2021/08/26 11:36:34;;;;;;;63.33;8.57;;;21.00;76.00;;;;;;5038569;28;20329;-61
2021/08/26 11:39:00;;;;;;;37.28;6.85;;;21.00;75.90;;;;;;5045797;28;20032;-61
2021/08/26 11:41:25;;;;;;;42.95;7.45;;;21.10;75.30;;;;;;5042357;28;20039;-60
2021/08/26 11:43:51;;;;;;;47.22;6.50;;;21.20;75.30;;;;;;5025765;28;20029;-61
2021/08/26 11:46:17;;;;;;;51.22;9.07;;;21.20;75.10;;;;;;5028673;28;20464;-61
2021/08/26 11:48:50;;;;;;;87.10;11.45;;;21.10;74.90;;;;;;5021255;28;20057;-61
2021/08/26 11:51:26;;;;;;;73.45;9.05;;;21.30;74.90;;;;;;5048273;28;20441;-61
2021/08/26 11:53:52;;;;;;;41.58;7.75;;;21.40;74.90;;;;;;5017621;28;20516;-61
2021/08/26 11:56:18;;;;;;;44.03;6.72;;;21.50;75.20;;;;;;5061557;28;20176;-60
2021/08/26 11:58:43;;;;;;;55.88;7.03;;;21.60;74.30;;;;;;5067230;28;20083;-61
2021/08/26 12:01:09;;;;;;;48.28;8.18;;;21.60;73.90;;;;;;5039420;28;20070;-61
2021/08/26 12:03:34;;;;;;;68.78;8.27;;;21.70;74.10;;;;;;5032119;28;20118;-61
2021/08/26 12:06:10;;;;;;;42.88;6.68;;;21.70;74.30;;;;;;5047544;28;20064;-61
2021/08/26 12:08:48;;;;;;;;;;;21.80;74.20;;;;;;5012192;28;20016;-61
2021/08/26 12:11:23;;;;;;;20.17;5.05;;;21.80;73.90;;;;;;5064857;28;19908;-63
2021/08/26 12:13:49;;;;;;;18.25;4.45;;;21.90;73.70;;;;;;5049947;28;20031;-63
2021/08/26 12:16:25;;;;;;;8.65;3.85;;;21.90;73.50;;;;;;5064627;28;20032;-61
2021/08/26 12:18:50;;;;;;;28.08;5.07;;;21.90;73.20;;;;;;5043690;28;20032;-61
2021/08/26 12:21:16;;;;;;;9.55;4.43;;;22.00;73.40;;;;;;5046226;28;20028;-61
2021/08/26 12:23:46;;;;;;;23.83;4.57;;;22.00;72.20;;;;;;5038329;28;20045;-61
2021/08/26 12:26:14;;;;;;;16.55;5.05;;;22.00;72.00;;;;;;5032951;28;20024;-61
2021/08/26 12:28:42;;;;;;;9.38;4.13;;;22.00;71.50;;;;;;5040530;28;20036;-61
2021/08/26 12:31:12;;;;;;;48.75;7.53;;;22.00;70.70;;;;;;5058191;28;20058;-64
2021/08/26 12:33:38;;;;;;;33.47;5.90;;;22.00;70.40;;;;;;5041461;28;20033;-63
2021/08/26 12:36:04;;;;;;;17.23;4.90;;;22.00;70.50;;;;;;5047578;28;20487;-64
2021/08/26 12:38:42;;;;;;;18.75;4.63;;;22.00;69.60;;;;;;5042157;28;20040;-61
2021/08/26 12:41:13;;;;;;;13.10;4.43;;;22.00;68.40;;;;;;5011726;28;20043;-62
2021/08/26 12:43:42;;;;;;;25.40;5.75;;;22.00;68.30;;;;;;5025651;28;20028;-61
2021/08/26 12:46:09;;;;;;;23.25;5.68;;;22.10;67.90;;;;;;5064492;28;20028;-62